Time;durP1;ratioP1;P1;durP2;ratioP2;P2;SDS_P1;SDS_P2;PMS_P1;PMS_P2;Temp;Humidity;BMP_temperature;BMP_pressure;BME280_temperature;BME280_humidity;BME280_pressure;Samples;Min_cycle;Max_cycle;Signal;HPM_P1;HPM_P2
2022/08/09 00:00:20;;;;;;;8.38;3.30;;;14.70;99.90;;;;;;6146327;22;20378;-88
2022/08/09 00:02:46;;;;;;;6.88;3.58;;;14.70;99.90;;;;;;6145438;23;20024;-88
2022/08/09 00:05:12;;;;;;;7.38;3.53;;;14.70;99.90;;;;;;6145493;23;20045;-88
2022/08/09 00:07:37;;;;;;;7.95;3.95;;;14.70;99.90;;;;;;6146191;22;20024;-88
2022/08/09 00:10:03;;;;;;;8.85;3.65;;;14.60;99.90;;;;;;6145506;23;20026;-88
2022/08/09 00:12:29;;;;;;;8.55;3.80;;;14.60;99.90;;;;;;6146130;23;20018;-88
2022/08/09 00:14:55;;;;;;;8.18;3.88;;;14.60;99.90;;;;;;6146019;22;20025;-88
2022/08/09 00:17:21;;;;;;;7.45;4.40;;;14.60;99.90;;;;;;6145553;23;20032;-88
2022/08/09 00:19:47;;;;;;;6.60;3.83;;;14.60;99.90;;;;;;6144447;23;20045;-88
2022/08/09 00:22:13;;;;;;;9.13;4.40;;;14.50;99.90;;;;;;6144173;23;20043;-89
2022/08/09 00:24:38;;;;;;;9.07;4.43;;;14.50;99.90;;;;;;6145980;22;20021;-88
2022/08/09 00:27:04;;;;;;;10.63;4.50;;;14.50;99.90;;;;;;6146531;22;20016;-88
2022/08/09 00:29:29;;;;;;;8.73;5.05;;;14.50;99.90;;;;;;6144338;23;20022;-88
2022/08/09 00:31:55;;;;;;;10.18;4.90;;;14.40;99.90;;;;;;6143601;23;20512;-88
2022/08/09 00:34:20;;;;;;;6.95;4.32;;;14.40;99.90;;;;;;6144062;23;20083;-87
2022/08/09 00:36:49;;;;;;;7.82;4.78;;;14.40;99.90;;;;;;6143987;23;20013;-88
2022/08/09 00:39:16;;;;;;;7.55;4.93;;;14.40;99.90;;;;;;6146036;23;20035;-88
2022/08/09 00:41:42;;;;;;;9.18;5.45;;;14.30;99.90;;;;;;6145660;23;20017;-88
2022/08/09 00:44:08;;;;;;;7.15;5.07;;;14.30;99.90;;;;;;6145954;23;20434;-88
2022/08/09 00:46:34;;;;;;;8.10;4.43;;;14.30;99.90;;;;;;6145313;23;20021;-88
2022/08/09 00:48:59;;;;;;;6.60;4.38;;;14.50;99.90;;;;;;6144103;22;20014;-87
2022/08/09 00:51:25;;;;;;;5.68;3.58;;;14.30;99.90;;;;;;6169083;22;20014;-87
2022/08/09 00:53:52;;;;;;;9.32;5.82;;;14.30;99.90;;;;;;6145454;23;20025;-87
2022/08/09 00:56:17;;;;;;;9.75;5.05;;;14.30;99.90;;;;;;6145014;23;20013;-89
2022/08/09 00:58:43;;;;;;;8.45;5.00;;;14.30;99.90;;;;;;6145039;23;20014;-88
2022/08/09 01:01:17;;;;;;;7.35;4.75;;;14.30;99.90;;;;;;6146311;22;20337;-88
2022/08/09 01:03:54;;;;;;;8.93;4.68;;;14.30;99.90;;;;;;6145114;23;20049;-88
2022/08/09 01:06:34;;;;;;;9.43;4.57;;;14.30;99.90;;;;;;6146580;23;20457;-88
2022/08/09 01:09:31;;;;;;;7.70;3.83;;;14.30;99.90;;;;;;6145137;23;20057;-88
2022/08/09 01:12:11;;;;;;;6.90;4.05;;;14.30;99.90;;;;;;6144828;23;20022;-88
2022/08/09 01:14:48;;;;;;;6.15;3.90;;;14.30;99.90;;;;;;6144348;23;20017;-88
2022/08/09 01:17:21;;;;;;;7.82;4.50;;;14.20;99.90;;;;;;6146745;23;20049;-88
2022/08/09 01:20:08;;;;;;;6.80;4.18;;;14.20;99.90;;;;;;6145540;23;20009;-87
2022/08/09 01:22:56;;;;;;;5.45;3.40;;;14.20;99.90;;;;;;6146593;23;20017;-88
2022/08/09 01:25:49;;;;;;;5.28;3.30;;;14.10;99.90;;;;;;6146798;22;20534;-88
2022/08/09 01:28:15;;;;;;;5.80;3.78;;;14.10;99.90;;;;;;6147511;22;20055;-87
2022/08/09 01:30:42;;;;;;;8.05;4.13;;;14.20;99.90;;;;;;6145971;22;20029;-88
2022/08/09 01:33:10;;;;;;;6.45;3.50;;;14.10;99.90;;;;;;6120680;23;20017;-88
2022/08/09 01:35:48;;;;;;;8.05;3.90;;;14.10;99.90;;;;;;6146584;23;20018;-88
2022/08/09 01:38:18;;;;;;;8.20;4.32;;;14.10;99.90;;;;;;6145073;23;20078;-88
2022/08/09 01:40:51;;;;;;;7.22;3.88;;;14.10;99.90;;;;;;6144748;23;20010;-88
2022/08/09 01:43:18;;;;;;;7.20;4.30;;;14.00;99.90;;;;;;6144645;22;20445;-88
2022/08/09 01:45:46;;;;;;;7.40;4.55;;;14.00;99.90;;;;;;6144762;23;20059;-88
2022/08/09 01:48:14;;;;;;;5.97;3.80;;;14.00;99.90;;;;;;6146747;23;20171;-87
2022/08/09 01:50:41;;;;;;;9.15;5.10;;;14.00;99.90;;;;;;6146518;23;20020;-88
2022/08/09 01:53:08;;;;;;;7.13;4.88;;;14.00;99.90;;;;;;6145216;23;20025;-88
2022/08/09 01:55:35;;;;;;;7.47;4.00;;;14.00;99.90;;;;;;6145926;23;20018;-87
2022/08/09 01:58:05;;;;;;;9.20;5.18;;;13.90;99.90;;;;;;6146357;23;20025;-88
2022/08/09 02:00:32;;;;;;;7.57;4.63;;;14.00;99.90;;;;;;6144757;23;20021;-88
2022/08/09 02:02:58;;;;;;;8.55;5.32;;;13.90;99.90;;;;;;6145118;23;20021;-88
2022/08/09 02:05:24;;;;;;;8.48;4.90;;;13.90;99.90;;;;;;6147189;22;20041;-88
2022/08/09 02:07:59;;;;;;;7.97;5.15;;;13.80;99.90;;;;;;6146226;23;20033;-87
2022/08/09 02:10:29;;;;;;;7.05;4.38;;;13.90;99.90;;;;;;6146095;23;20457;-88
2022/08/09 02:12:57;;;;;;;8.07;4.60;;;13.70;99.90;;;;;;6143897;23;20089;-88
2022/08/09 02:15:25;;;;;;;7.15;4.53;;;13.70;99.90;;;;;;6146972;23;20021;-87
2022/08/09 02:17:53;;;;;;;7.32;4.30;;;13.60;99.90;;;;;;6144648;23;20032;-87
2022/08/09 02:20:20;;;;;;;7.18;4.72;;;13.70;99.90;;;;;;6144996;23;20051;-88
2022/08/09 02:22:58;;;;;;;7.03;3.97;;;13.70;99.90;;;;;;6144016;23;20033;-88
2022/08/09 02:25:30;;;;;;;7.22;4.47;;;13.60;99.90;;;;;;6144900;22;20014;-87
2022/08/09 02:28:04;;;;;;;7.57;4.22;;;13.60;99.90;;;;;;6144022;23;20146;-88
2022/08/09 02:30:36;;;;;;;7.30;4.30;;;13.50;99.90;;;;;;6146959;23;20013;-87
2022/08/09 02:33:03;;;;;;;10.55;4.75;;;13.50;99.90;;;;;;6146510;23;20017;-88
2022/08/09 02:35:32;;;;;;;7.65;4.45;;;13.50;99.90;;;;;;6145406;23;20041;-88
2022/08/09 02:38:00;;;;;;;7.55;4.68;;;13.50;99.90;;;;;;6144391;23;20465;-87
2022/08/09 02:40:28;;;;;;;6.60;4.78;;;13.50;99.90;;;;;;6147187;23;20021;-88
2022/08/09 02:42:54;;;;;;;8.85;5.07;;;13.50;99.90;;;;;;6145630;22;20017;-88
2022/08/09 02:45:29;;;;;;;7.95;4.90;;;13.40;99.90;;;;;;6147022;22;20021;-88
2022/08/09 02:48:01;;;;;;;5.70;3.25;;;13.40;99.90;;;;;;6146149;23;20135;-88
2022/08/09 02:50:39;;;;;;;6.75;4.45;;;13.40;99.90;;;;;;6146367;23;20020;-88
2022/08/09 02:53:33;;;;;;;6.28;3.75;;;13.40;99.90;;;;;;6147104;23;20022;-88
2022/08/09 02:56:00;;;;;;;5.57;3.50;;;13.30;99.90;;;;;;6146018;23;20546;-88
2022/08/09 02:58:30;;;;;;;7.82;4.00;;;13.30;99.90;;;;;;6146477;22;20025;-88
2022/08/09 03:00:57;;;;;;;7.95;3.80;;;13.30;99.90;;;;;;6146045;23;20188;-88
2022/08/09 03:03:23;;;;;;;6.93;4.30;;;13.30;99.90;;;;;;6147006;23;20021;-88
2022/08/09 03:05:54;;;;;;;7.80;4.35;;;13.30;99.90;;;;;;6145011;22;20029;-87
2022/08/09 03:08:21;;;;;;;8.05;4.22;;;13.30;99.90;;;;;;6146924;23;20022;-87
2022/08/09 03:10:48;;;;;;;7.68;3.53;;;13.30;99.90;;;;;;6145576;23;20041;-88
2022/08/09 03:13:14;;;;;;;8.48;4.20;;;13.20;99.90;;;;;;6120204;23;20099;-87
2022/08/09 03:15:41;;;;;;;8.55;4.50;;;13.20;99.90;;;;;;6145592;23;20438;-88
2022/08/09 03:18:08;;;;;;;8.80;4.57;;;13.20;99.90;;;;;;6144426;22;20026;-88
2022/08/09 03:20:36;;;;;;;6.30;4.00;;;13.20;99.90;;;;;;6145789;23;20063;-88
2022/08/09 03:23:02;;;;;;;6.45;3.63;;;13.20;99.90;;;;;;6119695;23;20465;-88
2022/08/09 03:25:30;;;;;;;6.68;3.78;;;13.10;99.90;;;;;;6143938;22;20017;-88
2022/08/09 03:27:57;;;;;;;6.68;4.25;;;13.20;99.90;;;;;;6146330;22;20047;-88
2022/08/09 03:30:23;;;;;;;7.32;3.72;;;13.20;99.90;;;;;;6120361;23;20017;-88
2022/08/09 03:32:52;;;;;;;7.03;4.13;;;13.10;99.90;;;;;;6120119;23;20441;-88
2022/08/09 03:35:18;;;;;;;8.98;4.40;;;13.20;99.90;;;;;;6119837;23;20018;-88
2022/08/09 03:37:44;;;;;;;7.70;4.00;;;13.40;99.90;;;;;;6144309;23;20032;-88
2022/08/09 03:40:10;;;;;;;7.68;3.97;;;13.20;99.90;;;;;;6145378;23;20081;-87
2022/08/09 03:42:36;;;;;;;7.60;3.80;;;13.10;99.90;;;;;;6144180;23;20390;-87
2022/08/09 03:45:02;;;;;;;8.57;3.95;;;13.20;99.90;;;;;;6146564;22;20024;-87
2022/08/09 03:47:27;;;;;;;6.32;3.38;;;13.20;99.90;;;;;;6144883;23;20514;-87
2022/08/09 03:49:55;;;;;;;7.13;3.63;;;13.10;99.90;;;;;;6146129;22;20017;-87
2022/08/09 03:52:21;;;;;;;6.45;4.20;;;13.10;99.90;;;;;;6144214;23;20341;-88
2022/08/09 03:54:49;;;;;;;7.15;3.72;;;13.20;99.90;;;;;;6143786;23;20121;-88
2022/08/09 03:57:16;;;;;;;5.93;3.55;;;13.20;99.90;;;;;;6144489;22;20057;-88
2022/08/09 03:59:42;;;;;;;5.75;3.53;;;13.20;99.90;;;;;;6145915;23;20014;-87
2022/08/09 04:02:07;;;;;;;7.05;4.03;;;13.10;99.90;;;;;;6144431;23;20017;-88
2022/08/09 04:04:34;;;;;;;7.22;3.33;;;13.10;99.90;;;;;;6144018;23;20437;-88
2022/08/09 04:07:01;;;;;;;6.95;3.47;;;13.10;99.90;;;;;;6144851;23;20018;-87
2022/08/09 04:09:27;;;;;;;7.18;3.40;;;13.10;99.90;;;;;;6145550;23;20104;-88
2022/08/09 04:12:07;;;;;;;6.68;3.47;;;13.10;99.90;;;;;;6144392;23;20313;-88
2022/08/09 04:14:33;;;;;;;8.45;3.90;;;13.10;99.90;;;;;;6144238;23;20021;-88
2022/08/09 04:16:59;;;;;;;5.85;3.33;;;13.10;99.90;;;;;;6143951;23;20096;-88
2022/08/09 04:19:25;;;;;;;6.53;3.92;;;13.10;99.90;;;;;;6146101;22;20053;-88
2022/08/09 04:21:50;;;;;;;10.85;4.10;;;13.10;99.90;;;;;;6146353;22;20029;-86
2022/08/09 04:24:16;;;;;;;8.18;4.10;;;13.10;99.90;;;;;;6145667;22;20460;-88
2022/08/09 04:26:42;;;;;;;6.90;3.88;;;13.10;99.90;;;;;;6145443;23;20067;-88
2022/08/09 04:29:07;;;;;;;6.78;3.80;;;13.10;99.90;;;;;;6145766;23;20097;-88
2022/08/09 04:31:33;;;;;;;6.90;3.50;;;13.10;99.90;;;;;;6143730;23;20071;-87
2022/08/09 04:33:59;;;;;;;7.32;3.95;;;13.10;99.90;;;;;;6145452;23;20021;-88
2022/08/09 04:36:29;;;;;;;5.97;3.38;;;13.10;99.90;;;;;;6147466;22;20326;-88
2022/08/09 04:38:58;;;;;;;7.53;2.92;;;13.10;99.90;;;;;;6146461;23;20010;-88
2022/08/09 04:41:23;;;;;;;5.80;3.05;;;13.10;99.90;;;;;;6147040;23;20017;-88
2022/08/09 04:43:50;;;;;;;7.43;3.33;;;13.20;99.90;;;;;;6146725;22;20020;-87
2022/08/09 04:46:15;;;;;;;5.85;3.53;;;13.20;99.90;;;;;;6146902;23;20092;-87
2022/08/09 04:48:41;;;;;;;6.60;3.35;;;13.20;99.90;;;;;;6146717;22;20064;-88
2022/08/09 04:51:06;;;;;;;7.70;3.20;;;13.10;99.90;;;;;;6147605;22;20021;-88
2022/08/09 04:53:32;;;;;;;6.38;3.38;;;13.10;99.90;;;;;;6146995;22;20488;-87
2022/08/09 04:55:58;;;;;;;4.90;3.10;;;13.20;99.90;;;;;;6144948;23;20017;-87
2022/08/09 04:58:25;;;;;;;4.85;2.88;;;13.20;99.90;;;;;;6146835;23;20476;-88
2022/08/09 05:00:50;;;;;;;4.93;2.80;;;13.20;99.90;;;;;;6145241;23;20029;-88
2022/08/09 05:03:17;;;;;;;6.97;2.88;;;13.20;99.90;;;;;;6145379;23;20009;-88
2022/08/09 05:05:43;;;;;;;7.03;3.53;;;13.20;99.90;;;;;;6144695;23;20017;-88
2022/08/09 05:08:08;;;;;;;8.70;4.10;;;13.20;99.90;;;;;;6144656;23;20017;-88
2022/08/09 05:10:34;;;;;;;6.53;3.30;;;13.20;99.90;;;;;;6144887;23;20016;-87
2022/08/09 05:12:59;;;;;;;7.07;4.05;;;13.30;99.90;;;;;;6145452;23;20029;-88
2022/08/09 05:15:27;;;;;;;6.68;2.97;;;13.30;99.90;;;;;;6146715;22;20013;-88
2022/08/09 05:17:52;;;;;;;8.30;3.25;;;13.30;99.90;;;;;;6146948;23;20426;-87
2022/08/09 05:20:18;;;;;;;7.05;3.47;;;13.30;99.90;;;;;;6120209;23;20394;-88
2022/08/09 05:22:44;;;;;;;6.97;3.78;;;13.30;99.90;;;;;;6144806;23;20014;-88
2022/08/09 05:25:11;;;;;;;5.20;2.90;;;13.30;99.90;;;;;;6120655;23;20079;-88
2022/08/09 05:27:36;;;;;;;6.50;3.13;;;13.30;99.90;;;;;;6120771;23;20353;-88
2022/08/09 05:30:02;;;;;;;8.02;3.42;;;13.40;99.90;;;;;;6147195;22;20057;-88
2022/08/09 05:32:28;;;;;;;4.90;2.72;;;13.40;99.90;;;;;;6145120;22;20026;-87
2022/08/09 05:34:54;;;;;;;5.50;2.83;;;13.40;99.90;;;;;;6145145;23;20041;-87
2022/08/09 05:37:19;;;;;;;6.40;3.00;;;13.40;99.90;;;;;;6146172;23;20017;-87
2022/08/09 05:39:45;;;;;;;5.07;2.85;;;13.50;99.90;;;;;;6119963;23;20071;-88
2022/08/09 05:42:12;;;;;;;6.22;2.70;;;13.50;99.90;;;;;;6145199;23;20025;-88
2022/08/09 05:44:38;;;;;;;5.82;2.90;;;13.50;99.90;;;;;;6146674;23;20022;-87
2022/08/09 05:47:03;;;;;;;6.30;3.13;;;13.60;99.90;;;;;;6145680;23;20024;-88
2022/08/09 05:49:29;;;;;;;5.97;3.20;;;13.50;99.90;;;;;;6146612;23;20018;-88
2022/08/09 05:51:54;;;;;;;6.25;2.78;;;13.60;99.90;;;;;;6146382;22;20067;-88
2022/08/09 05:54:20;;;;;;;6.53;3.05;;;13.60;99.90;;;;;;6145195;23;20097;-88
2022/08/09 05:56:45;;;;;;;7.38;3.22;;;13.60;99.90;;;;;;6146005;22;20057;-88
2022/08/09 05:59:11;;;;;;;6.78;3.08;;;13.70;99.90;;;;;;6146765;22;20018;-88
2022/08/09 06:01:37;;;;;;;8.75;4.25;;;13.70;99.90;;;;;;6120147;23;20018;-87
2022/08/09 06:04:03;;;;;;;11.00;4.45;;;13.80;99.90;;;;;;6120943;23;20016;-88
2022/08/09 06:06:28;;;;;;;7.88;4.25;;;13.80;99.90;;;;;;6120653;23;20014;-88
2022/08/09 06:08:54;;;;;;;7.35;4.25;;;13.90;99.90;;;;;;6144531;23;20361;-87
2022/08/09 06:11:19;;;;;;;8.43;4.13;;;14.00;99.90;;;;;;6145149;23;20461;-88
2022/08/09 06:13:45;;;;;;;8.45;4.70;;;14.10;99.90;;;;;;6144666;23;20024;-88
2022/08/09 06:16:11;;;;;;;10.82;5.70;;;14.10;99.90;;;;;;6146764;22;20078;-88
2022/08/09 06:18:37;;;;;;;9.43;5.05;;;14.20;99.90;;;;;;6144179;23;20021;-89
2022/08/09 06:21:03;;;;;;;9.80;5.18;;;14.30;99.90;;;;;;6144975;23;20013;-88
2022/08/09 06:23:31;;;;;;;12.77;5.43;;;14.30;99.90;;;;;;6120177;23;20104;-88
2022/08/09 06:25:57;;;;;;;12.02;5.15;;;14.40;99.90;;;;;;6144613;23;20025;-89
2022/08/09 06:28:22;;;;;;;8.82;5.05;;;14.50;99.90;;;;;;6144624;23;20346;-88
2022/08/09 06:30:48;;;;;;;8.23;5.38;;;14.50;99.90;;;;;;6146248;22;20014;-88
2022/08/09 06:33:13;;;;;;;10.38;4.43;;;14.60;99.90;;;;;;6144249;23;20071;-89
2022/08/09 06:35:39;;;;;;;7.95;4.90;;;14.60;99.90;;;;;;6144305;23;20014;-88
2022/08/09 06:38:05;;;;;;;7.63;3.17;;;14.60;99.90;;;;;;6145228;23;20112;-89
2022/08/09 06:40:30;;;;;;;12.55;5.30;;;14.70;99.90;;;;;;6144951;23;20021;-88
2022/08/09 06:42:56;;;;;;;9.18;5.30;;;14.70;99.90;;;;;;6144302;23;20018;-88
2022/08/09 06:45:22;;;;;;;10.38;5.20;;;14.80;99.90;;;;;;6146833;23;20345;-88
2022/08/09 06:47:48;;;;;;;9.90;5.72;;;14.90;99.90;;;;;;6118997;23;20028;-88
2022/08/09 06:50:15;;;;;;;12.55;5.63;;;15.00;99.90;;;;;;6145146;23;20047;-88
2022/08/09 06:52:47;;;;;;;10.93;4.80;;;15.00;99.90;;;;;;6146237;23;20017;-88
2022/08/09 06:55:18;;;;;;;7.80;4.57;;;15.10;99.90;;;;;;6146263;23;20025;-88
2022/08/09 06:57:44;;;;;;;10.07;4.95;;;15.20;99.90;;;;;;6144573;23;20040;-88
2022/08/09 07:00:10;;;;;;;9.07;4.35;;;15.30;99.90;;;;;;6145138;23;20445;-88
2022/08/09 07:02:36;;;;;;;7.97;4.57;;;15.40;99.90;;;;;;6143927;23;20017;-88
2022/08/09 07:05:02;;;;;;;7.35;4.20;;;15.40;99.90;;;;;;6145509;23;20017;-88
2022/08/09 07:07:28;;;;;;;8.75;4.35;;;15.50;99.90;;;;;;6144537;23;20024;-88
2022/08/09 07:09:54;;;;;;;7.72;4.45;;;15.60;99.90;;;;;;6144090;23;20085;-88
2022/08/09 07:12:19;;;;;;;12.30;5.05;;;15.70;99.90;;;;;;6120461;23;20021;-89
2022/08/09 07:14:45;;;;;;;10.43;3.92;;;15.80;99.90;;;;;;6145965;22;20096;-89
2022/08/09 07:17:11;;;;;;;7.90;3.00;;;15.90;99.90;;;;;;6144261;23;20400;-89
2022/08/09 07:19:36;;;;;;;6.63;3.38;;;16.00;99.90;;;;;;6144949;23;20017;-88
2022/08/09 07:22:02;;;;;;;6.15;2.70;;;16.10;99.90;;;;;;6146360;22;20018;-88
2022/08/09 07:24:32;;;;;;;4.82;2.67;;;16.20;99.90;;;;;;6144860;23;20026;-89
2022/08/09 07:26:58;;;;;;;6.72;2.20;;;16.20;99.90;;;;;;6145601;23;20461;-88
2022/08/09 07:29:25;;;;;;;6.00;1.90;;;16.40;99.90;;;;;;6146401;23;20025;-89
2022/08/09 07:31:50;;;;;;;10.15;1.77;;;16.40;99.90;;;;;;6143867;23;20473;-89
2022/08/09 07:34:16;;;;;;;4.22;1.52;;;16.60;99.90;;;;;;6145226;23;20067;-88
2022/08/09 07:36:42;;;;;;;4.47;1.73;;;16.60;99.90;;;;;;6144568;23;20017;-88
2022/08/09 07:39:07;;;;;;;5.78;1.83;;;16.70;99.90;;;;;;6146273;22;20342;-89
2022/08/09 07:41:33;;;;;;;2.80;1.40;;;16.80;99.90;;;;;;6146247;23;20017;-88
2022/08/09 07:43:59;;;;;;;5.03;1.73;;;16.80;99.90;;;;;;6146747;22;20025;-88
2022/08/09 07:46:25;;;;;;;4.88;1.70;;;16.80;99.90;;;;;;6146173;22;20017;-88
2022/08/09 07:48:51;;;;;;;5.43;2.08;;;16.90;99.90;;;;;;6144186;22;20048;-88
2022/08/09 07:51:16;;;;;;;2.47;1.35;;;17.00;99.90;;;;;;6144667;23;20022;-88
2022/08/09 07:53:42;;;;;;;4.20;1.40;;;17.10;99.90;;;;;;6143988;23;20073;-88
2022/08/09 07:56:08;;;;;;;3.85;1.48;;;17.30;99.90;;;;;;6145907;22;20018;-89
2022/08/09 07:58:34;;;;;;;4.70;1.50;;;17.50;99.90;;;;;;6143904;23;20053;-89
2022/08/09 08:00:59;;;;;;;5.45;1.60;;;17.70;99.90;;;;;;6144058;23;20025;-89
2022/08/09 08:03:25;;;;;;;4.50;1.42;;;17.90;99.90;;;;;;6119777;23;20018;-88
2022/08/09 08:05:51;;;;;;;4.40;1.70;;;18.10;99.90;;;;;;6146286;23;20010;-88
2022/08/09 08:08:17;;;;;;;4.10;1.58;;;18.30;99.90;;;;;;6143149;23;20017;-89
2022/08/09 08:10:43;;;;;;;4.18;1.80;;;18.40;99.90;;;;;;6144109;23;20022;-88
2022/08/09 08:13:08;;;;;;;3.92;1.35;;;18.40;99.90;;;;;;6143947;23;20438;-89
2022/08/09 08:15:34;;;;;;;4.32;1.50;;;18.30;99.90;;;;;;6143384;23;20328;-88
2022/08/09 08:18:00;;;;;;;2.50;1.48;;;18.40;99.90;;;;;;6144108;23;20108;-89
2022/08/09 08:20:27;;;;;;;2.97;1.30;;;18.40;99.90;;;;;;6145725;22;20174;-89
2022/08/09 08:22:53;;;;;;;1.48;0.82;;;18.80;99.90;;;;;;6119296;23;20060;-88
2022/08/09 08:25:18;;;;;;;3.13;1.25;;;19.10;99.90;;;;;;6146435;22;20044;-89
2022/08/09 08:27:44;;;;;;;3.53;1.20;;;19.20;99.90;;;;;;6143699;23;20018;-90
2022/08/09 08:30:12;;;;;;;1.90;0.80;;;19.50;99.90;;;;;;6146166;22;20024;-88
2022/08/09 08:32:38;;;;;;;2.08;0.80;;;19.90;99.90;;;;;;6143697;23;20388;-89
2022/08/09 08:35:05;;;;;;;2.72;1.10;;;20.20;99.90;;;;;;6143882;23;20375;-89
2022/08/09 08:37:31;;;;;;;3.10;1.05;;;20.50;99.90;;;;;;6144015;23;20072;-89
2022/08/09 08:39:57;;;;;;;3.40;1.10;;;20.90;99.90;;;;;;6144031;23;20024;-89
2022/08/09 08:42:23;;;;;;;3.35;1.23;;;21.00;99.90;;;;;;6144614;23;20017;-89
2022/08/09 08:44:56;;;;;;;3.13;0.70;;;21.20;99.90;;;;;;6143461;23;20102;-89
2022/08/09 08:47:23;;;;;;;2.88;0.65;;;21.20;99.90;;;;;;6144511;23;20085;-89
2022/08/09 08:49:49;;;;;;;1.55;0.60;;;21.30;99.90;;;;;;6145297;23;20024;-89
2022/08/09 08:52:24;;;;;;;2.03;0.60;;;21.40;99.90;;;;;;6145735;23;20484;-89
2022/08/09 08:54:58;;;;;;;1.75;0.60;;;21.50;99.90;;;;;;6143659;22;20310;-90
2022/08/09 08:57:25;;;;;;;1.50;0.43;;;21.40;99.90;;;;;;6119516;23;20021;-89
2022/08/09 08:59:51;;;;;;;2.05;0.60;;;21.40;99.90;;;;;;6142609;22;20014;-89
2022/08/09 09:02:22;;;;;;;1.42;0.60;;;21.30;99.90;;;;;;6144460;23;20017;-89
2022/08/09 09:04:51;;;;;;;4.88;0.60;;;21.40;99.90;;;;;;6143687;23;20014;-89
2022/08/09 09:07:18;;;;;;;0.82;0.50;;;21.50;99.90;;;;;;6144036;23;20024;-90
2022/08/09 09:09:48;;;;;;;0.70;0.50;;;21.50;99.90;;;;;;6145114;23;20442;-89
2022/08/09 09:12:16;;;;;;;1.30;0.63;;;21.50;99.90;;;;;;6144002;23;20093;-90
2022/08/09 09:14:43;;;;;;;1.48;0.70;;;21.50;99.90;;;;;;6142476;23;20020;-89
2022/08/09 09:17:09;;;;;;;2.42;0.60;;;21.60;99.90;;;;;;6145770;23;20025;-89
2022/08/09 09:19:35;;;;;;;3.10;0.50;;;21.90;99.90;;;;;;6144323;23;20021;-89
2022/08/09 09:22:09;;;;;;;2.10;0.63;;;22.00;99.90;;;;;;6147246;22;20022;-89
2022/08/09 09:24:38;;;;;;;2.90;0.50;;;22.10;99.90;;;;;;6146726;23;20369;-89
2022/08/09 09:27:05;;;;;;;2.75;0.47;;;22.10;99.90;;;;;;6145073;22;20460;-90
2022/08/09 09:29:33;;;;;;;2.60;0.60;;;22.10;99.90;;;;;;6147217;23;20018;-89
2022/08/09 09:32:00;;;;;;;4.35;0.50;;;22.30;99.90;;;;;;6146576;23;20097;-90
2022/08/09 09:34:26;;;;;;;0.95;0.45;;;22.70;99.90;;;;;;6120736;23;20101;-89
2022/08/09 09:36:52;;;;;;;1.42;0.50;;;22.70;99.90;;;;;;6144991;23;20053;-90
2022/08/09 09:39:18;;;;;;;3.58;0.50;;;22.90;99.90;;;;;;6144907;23;20367;-90
2022/08/09 09:41:45;;;;;;;2.47;0.50;;;23.10;99.90;;;;;;6144753;23;20437;-90
2022/08/09 09:44:10;;;;;;;2.55;0.73;;;23.20;99.90;;;;;;6145178;23;20070;-90
2022/08/09 09:46:38;;;;;;;2.70;0.60;;;23.30;99.90;;;;;;6146796;23;20096;-90
2022/08/09 09:49:05;;;;;;;2.03;0.70;;;23.20;99.90;;;;;;6120553;23;20021;-89
2022/08/09 09:51:32;;;;;;;0.93;0.50;;;23.10;99.90;;;;;;6120439;23;20113;-90
2022/08/09 09:54:08;;;;;;;1.30;0.40;;;23.20;99.90;;;;;;6146596;23;20097;-89
2022/08/09 09:56:40;;;;;;;1.67;0.38;;;23.30;99.90;;;;;;6119366;23;20071;-90
2022/08/09 09:59:07;;;;;;;1.23;0.52;;;23.20;99.90;;;;;;6147447;22;20009;-89
2022/08/09 10:01:33;;;;;;;1.48;0.40;;;23.20;99.90;;;;;;6146474;23;20067;-90
2022/08/09 10:03:59;;;;;;;2.78;0.40;;;23.00;99.90;;;;;;6145489;23;20087;-90
2022/08/09 10:06:27;;;;;;;1.73;0.60;;;23.00;99.90;;;;;;6145514;23;20337;-90
2022/08/09 10:08:59;;;;;;;3.40;0.45;;;23.00;99.90;;;;;;6145083;23;20146;-90
2022/08/09 10:11:29;;;;;;;1.02;0.50;;;23.00;99.90;;;;;;6146712;23;20021;-90
2022/08/09 10:13:54;;;;;;;3.05;0.60;;;23.00;99.90;;;;;;6144562;23;20017;-89
2022/08/09 10:16:36;;;;;;;1.75;0.40;;;23.10;99.90;;;;;;6145090;23;20068;-90
2022/08/09 10:19:07;;;;;;;1.27;0.40;;;23.30;99.90;;;;;;6146698;23;20461;-90
2022/08/09 10:21:34;;;;;;;1.52;0.50;;;23.50;99.90;;;;;;6120202;23;20398;-89
2022/08/09 10:24:02;;;;;;;2.05;0.60;;;23.60;99.90;;;;;;6147199;23;20105;-89
2022/08/09 10:26:28;;;;;;;1.65;0.43;;;23.70;99.90;;;;;;6144570;23;20016;-90
2022/08/09 10:28:56;;;;;;;1.00;0.40;;;23.70;99.90;;;;;;6144668;23;20047;-90
2022/08/09 10:31:21;;;;;;;2.13;0.70;;;23.80;99.90;;;;;;6146031;23;20064;-90
2022/08/09 10:33:47;;;;;;;3.33;0.68;;;23.90;99.90;;;;;;6144593;23;20018;-90
2022/08/09 10:36:14;;;;;;;2.00;0.50;;;23.90;99.90;;;;;;6146257;23;20079;-90
2022/08/09 10:38:45;;;;;;;2.38;0.55;;;24.00;99.90;;;;;;6146166;22;20468;-90
2022/08/09 10:41:13;;;;;;;1.95;0.60;;;24.20;99.90;;;;;;6145976;23;20022;-90
2022/08/09 10:43:43;;;;;;;0.90;0.43;;;24.20;99.90;;;;;;6146242;23;20017;-90
2022/08/09 10:46:36;;;;;;;0.80;0.38;;;24.20;99.60;;;;;;6145627;23;20039;-89
2022/08/09 10:49:28;;;;;;;0.75;0.50;;;24.30;98.80;;;;;;6145198;23;20020;-91
2022/08/09 10:52:25;;;;;;;1.00;0.60;;;24.40;98.40;;;;;;6146626;23;20021;-89
2022/08/09 10:54:52;;;;;;;2.15;0.60;;;24.50;98.70;;;;;;6144487;23;20013;-91
2022/08/09 10:57:17;;;;;;;3.28;0.52;;;24.60;98.80;;;;;;6144808;23;20353;-90
2022/08/09 10:59:44;;;;;;;2.67;0.77;;;24.70;99.30;;;;;;6144634;23;20052;-90
2022/08/09 11:02:36;;;;;;;2.85;0.70;;;24.90;99.10;;;;;;6145344;23;20085;-90
2022/08/09 11:05:18;;;;;;;1.48;0.65;;;24.90;97.30;;;;;;6146853;23;20017;-90
2022/08/09 11:07:43;;;;;;;2.65;0.80;;;24.90;97.80;;;;;;6144950;23;20337;-90
2022/08/09 11:10:09;;;;;;;1.00;0.50;;;24.90;98.30;;;;;;6146015;22;20088;-90
2022/08/09 11:12:35;;;;;;;1.35;0.50;;;25.00;98.60;;;;;;6144339;23;20426;-90
2022/08/09 11:15:12;;;;;;;1.25;0.60;;;25.20;98.70;;;;;;6120472;23;20022;-90
2022/08/09 11:17:42;;;;;;;0.80;0.40;;;25.20;98.00;;;;;;6144557;23;20465;-90
2022/08/09 11:20:09;;;;;;;1.85;0.50;;;25.30;98.40;;;;;;6144845;23;20135;-90
2022/08/09 11:22:41;;;;;;;0.73;0.50;;;25.30;98.40;;;;;;6146303;23;20081;-90
2022/08/09 11:25:21;;;;;;;0.88;0.47;;;25.30;98.50;;;;;;6146008;22;20079;-90
2022/08/09 11:27:49;;;;;;;1.25;0.57;;;25.30;98.00;;;;;;6144111;23;20014;-90
2022/08/09 11:30:32;;;;;;;1.85;0.50;;;25.20;98.40;;;;;;6146339;23;20026;-90
2022/08/09 11:33:06;;;;;;;0.57;0.47;;;25.20;98.40;;;;;;6146741;23;20089;-90
2022/08/09 11:35:43;;;;;;;1.30;0.60;;;25.40;98.30;;;;;;6144657;23;20040;-90
2022/08/09 11:38:17;;;;;;;4.15;0.50;;;25.60;98.40;;;;;;6144118;23;20017;-90
2022/08/09 11:40:43;;;;;;;2.17;0.77;;;25.80;97.30;;;;;;6144000;23;20442;-90
2022/08/09 11:43:33;;;;;;;1.77;0.60;;;26.00;97.80;;;;;;6145070;23;20033;-90
2022/08/09 11:46:00;;;;;;;2.00;0.55;;;26.20;97.90;;;;;;6145766;23;20477;-90
2022/08/09 11:48:29;;;;;;;1.38;0.50;;;26.40;97.80;;;;;;6144803;23;20057;-91
2022/08/09 11:50:57;;;;;;;2.13;0.70;;;26.50;97.90;;;;;;6146061;23;20013;-90
2022/08/09 11:53:26;;;;;;;1.20;0.40;;;26.50;97.40;;;;;;6143784;23;20063;-90
2022/08/09 11:55:54;;;;;;;1.50;0.50;;;26.50;96.90;;;;;;6144030;23;20033;-90
2022/08/09 11:58:19;;;;;;;1.65;0.50;;;26.50;97.30;;;;;;6119666;23;20100;-91
2022/08/09 12:00:53;;;;;;;2.17;0.60;;;26.40;97.30;;;;;;6144088;23;20507;-90
2022/08/09 12:03:23;;;;;;;1.05;0.40;;;26.40;97.20;;;;;;6144500;23;20024;-90
2022/08/09 12:05:53;;;;;;;2.05;0.70;;;26.40;96.80;;;;;;6144239;23;20024;-90
2022/08/09 12:08:20;;;;;;;1.42;0.50;;;26.40;97.00;;;;;;6145604;23;20021;-90
2022/08/09 12:10:49;;;;;;;3.58;0.45;;;26.40;97.10;;;;;;6144181;23;20331;-91
2022/08/09 12:13:48;;;;;;;1.85;0.60;;;26.40;95.80;;;;;;6146103;22;20084;-90
2022/08/09 12:16:31;;;;;;;1.90;0.70;;;26.40;95.80;;;;;;6194839;23;20020;-90
2022/08/09 12:18:58;;;;;;;1.40;0.50;;;26.50;96.70;;;;;;6145648;23;20461;-90
2022/08/09 12:21:26;;;;;;;1.30;0.50;;;26.50;96.40;;;;;;6145860;23;20021;-90
2022/08/09 12:23:53;;;;;;;1.38;0.63;;;26.70;96.30;;;;;;6144399;23;20645;-90
2022/08/09 12:26:20;;;;;;;1.58;0.50;;;26.70;96.10;;;;;;6119458;23;20017;-90
2022/08/09 12:28:47;;;;;;;1.15;0.68;;;26.70;96.50;;;;;;6119508;23;20107;-90
2022/08/09 12:31:28;;;;;;;2.03;0.60;;;26.80;96.40;;;;;;6119786;23;20017;-90
2022/08/09 12:33:55;;;;;;;2.20;0.50;;;26.80;95.20;;;;;;6169003;23;20025;-91
2022/08/09 12:36:22;;;;;;;2.58;0.40;;;26.90;95.80;;;;;;6143401;23;20025;-90
2022/08/09 12:38:53;;;;;;;1.60;0.60;;;26.90;95.70;;;;;;6144343;23;20468;-90
2022/08/09 12:41:32;;;;;;;1.10;0.45;;;26.90;94.70;;;;;;6146161;23;20018;-90
2022/08/09 12:43:59;;;;;;;1.50;0.70;;;26.90;95.10;;;;;;6146296;22;20022;-90
2022/08/09 12:46:26;;;;;;;0.52;0.32;;;27.10;95.80;;;;;;6144325;23;20014;-90
2022/08/09 12:48:56;;;;;;;0.77;0.50;;;27.10;95.80;;;;;;6145785;23;20043;-90
2022/08/09 12:51:22;;;;;;;1.80;0.40;;;27.20;95.30;;;;;;6145444;23;20014;-90